Time;durP1;ratioP1;P1;durP2;ratioP2;P2;SDS_P1;SDS_P2;PMS_P1;PMS_P2;Temp;Humidity;BMP_temperature;BMP_pressure;BME280_temperature;BME280_humidity;BME280_pressure;Samples;Min_cycle;Max_cycle;Signal;HPM_P1;HPM_P2
2024/04/11 00:00:10;;;;;;;;;;;;;;;;;;5461563;25;19931;-65
2024/04/11 00:02:39;;;;;;;;;;;;;;;;;;5495474;25;20109;-66
2024/04/11 00:05:04;;;;;;;;;;;;;;;;;;5466014;25;20388;-66
2024/04/11 00:07:29;;;;;;;;;;;;;;;;;;5487506;25;19979;-67
2024/04/11 00:09:57;;;;;;;;;;;;;;;;;;5486705;25;19934;-65
2024/04/11 00:12:22;;;;;;;;;;;;;;;;;;5508784;25;19995;-66
2024/04/11 00:14:52;;;;;;;;;;;;;;;;;;5511104;25;19943;-66
2024/04/11 00:17:18;;;;;;;;;;;;;;;;;;5473003;25;20616;-67
2024/04/11 00:19:45;;;;;;;;;;;;;;;;;;5505155;25;20008;-67
2024/04/11 00:22:15;;;;;;;;;;;;;;;;;;5507497;25;19927;-65
2024/04/11 00:24:43;;;;;;;;;;;;;;;;;;5477937;25;20540;-67
2024/04/11 00:27:11;;;;;;;;;;;;;;;;;;5483218;25;20785;-64
2024/04/11 00:29:36;;;;;;;;;;;;;;;;;;5480015;25;19935;-64
2024/04/11 00:32:02;;;;;;;;;;;;;;;;;;5484682;25;19942;-64
2024/04/11 00:34:31;;;;;;;;;;;;;;;;;;5516907;25;19935;-65
2024/04/11 00:36:59;;;;;;;;;;;;;;;;;;5481603;25;19934;-64
2024/04/11 00:39:25;;;;;;;;;;;;;;;;;;5514718;25;19939;-65
2024/04/11 00:41:53;;;;;;;;;;;;;;;;;;5513419;25;19942;-66
2024/04/11 00:44:18;;;;;;;;;;;;;;;;;;5486996;25;20324;-65
2024/04/11 00:46:44;;;;;;;;;;;;;;;;;;5467332;25;20016;-66
2024/04/11 00:49:09;;;;;;;;;;;;;;;;;;5464293;25;19938;-65
2024/04/11 00:51:34;;;;;;;;;;;;;;;;;;5487549;25;20529;-66
2024/04/11 00:54:02;;;;;;;;;;;;;;;;;;5509050;25;19931;-65
2024/04/11 00:56:30;;;;;;;;;;;;;;;;;;5479889;25;19926;-66
2024/04/11 00:58:58;;;;;;;;;;;;;;;;;;5478577;25;19961;-65
2024/04/11 01:01:26;;;;;;;;;;;;;;;;;;5490142;25;19939;-65
2024/04/11 01:03:53;;;;;;;;;;;;;;;;;;5518134;25;19951;-65
2024/04/11 01:06:21;;;;;;;;;;;;;;;;;;5490693;25;20358;-65
2024/04/11 01:08:47;;;;;;;;;;;;;;;;;;5486932;25;19963;-66
2024/04/11 01:11:12;;;;;;;;;;;;;;;;;;5488945;25;19955;-65
2024/04/11 01:13:39;;;;;;;;;;;;;;;;;;5485477;25;19935;-65
2024/04/11 01:16:08;;;;;;;;;;;;;;;;;;5490966;25;20294;-65
2024/04/11 01:18:36;;;;;;;;;;;;;;;;;;5500620;25;19927;-66
2024/04/11 01:21:01;;;;;;;;;;;;;;;;;;5483904;25;19939;-66
2024/04/11 01:23:27;;;;;;;;;;;;;;;;;;5516565;25;20409;-66
2024/04/11 01:25:55;;;;;;;;;;;;;;;;;;5517440;25;19935;-66
2024/04/11 01:28:20;;;;;;;;;;;;;;;;;;5487853;25;20615;-66
2024/04/11 01:30:45;;;;;;;;;;;;;;;;;;5489573;25;19935;-67
2024/04/11 01:33:14;;;;;;;;;;;;;;;;;;5518083;25;20323;-66
2024/04/11 01:35:42;;;;;;;;;;;;;;;;;;5491391;25;19934;-65
2024/04/11 01:38:07;;;;;;;;;;;;;;;;;;5487265;25;19927;-69
2024/04/11 01:40:35;;;;;;;;;;;;;;;;;;5518664;25;19927;-68
2024/04/11 01:43:04;;;;;;;;;;;;;;;;;;5518523;25;19935;-65
2024/04/11 01:45:32;;;;;;;;;;;;;;;;;;5489914;25;19946;-65
2024/04/11 01:47:57;;;;;;;;;;;;;;;;;;5490237;25;20419;-64
2024/04/11 01:50:22;;;;;;;;;;;;;;;;;;5488683;25;19935;-66
2024/04/11 01:52:51;;;;;;;;;;;;;;;;;;5497274;25;19927;-66
2024/04/11 01:55:22;;;;;;;;;;;;;;;;;;5491597;25;19959;-65
2024/04/11 01:57:52;;;;;;;;;;;;;;;;;;5520222;25;20379;-66
2024/04/11 02:00:17;;;;;;;;;;;;;;;;;;5519158;25;19995;-64
2024/04/11 02:02:43;;;;;;;;;;;;;;;;;;5467760;25;20259;-66
2024/04/11 02:05:09;;;;;;;;;;;;;;;;;;5492661;25;19950;-66
2024/04/11 02:07:34;;;;;;;;;;;;;;;;;;5497045;25;20038;-66
2024/04/11 02:10:00;;;;;;;;;;;;;;;;;;5509789;25;20331;-67
2024/04/11 02:12:30;;;;;;;;;;;;;;;;;;5514757;25;19951;-64
2024/04/11 02:14:58;;;;;;;;;;;;;;;;;;5455112;25;19934;-65
2024/04/11 02:17:26;;;;;;;;;;;;;;;;;;5515549;25;19928;-66
2024/04/11 02:19:51;;;;;;;;;;;;;;;;;;5491992;25;19989;-65
2024/04/11 02:22:17;;;;;;;;;;;;;;;;;;5508656;25;20452;-65
2024/04/11 02:24:46;;;;;;;;;;;;;;;;;;5480869;25;20489;-65
2024/04/11 02:27:11;;;;;;;;;;;;;;;;;;5505830;25;19943;-65
2024/04/11 02:29:40;;;;;;;;;;;;;;;;;;5480361;25;20028;-67
2024/04/11 02:32:05;;;;;;;;;;;;;;;;;;5504212;25;20297;-67
2024/04/11 02:34:33;;;;;;;;;;;;;;;;;;5510649;25;20047;-66
2024/04/11 02:36:58;;;;;;;;;;;;;;;;;;5447510;25;20279;-66
2024/04/11 02:39:25;;;;;;;;;;;;;;;;;;5506720;25;20263;-63
2024/04/11 02:41:51;;;;;;;;;;;;;;;;;;5508206;25;19938;-65
2024/04/11 02:44:20;;;;;;;;;;;;;;;;;;5480490;25;19927;-63
2024/04/11 02:46:47;;;;;;;;;;;;;;;;;;5506378;25;19950;-65
2024/04/11 02:49:12;;;;;;;;;;;;;;;;;;5510328;25;19942;-66
2024/04/11 02:51:37;;;;;;;;;;;;;;;;;;5476876;25;19926;-67
2024/04/11 02:54:05;;;;;;;;;;;;;;;;;;5476642;25;19963;-66
2024/04/11 02:56:32;;;;;;;;;;;;;;;;;;5508674;25;20358;-65
2024/04/11 02:58:58;;;;;;;;;;;;;;;;;;5505318;25;19941;-66
2024/04/11 03:01:23;;;;;;;;;;;;;;;;;;5473710;25;19939;-67
2024/04/11 03:03:55;;;;;;;;;;;;;;;;;;5507530;25;19935;-67
2024/04/11 03:06:23;;;;;;;;;;;;;;;;;;5513288;25;20473;-64
2024/04/11 03:08:53;;;;;;;;;;;;;;;;;;5517536;25;19935;-65
2024/04/11 03:11:18;;;;;;;;;;;;;;;;;;5450223;25;20022;-66
2024/04/11 03:13:46;;;;;;;;;;;;;;;;;;5478556;25;20493;-66
2024/04/11 03:16:12;;;;;;;;;;;;;;;;;;5486685;25;20019;-66
2024/04/11 03:18:39;;;;;;;;;;;;;;;;;;5488874;25;20560;-64
2024/04/11 03:21:05;;;;;;;;;;;;;;;;;;5522051;25;19938;-65
2024/04/11 03:23:30;;;;;;;;;;;;;;;;;;5488610;25;20367;-66
2024/04/11 03:25:56;;;;;;;;;;;;;;;;;;5521707;25;19932;-67
2024/04/11 03:28:23;;;;;;;;;;;;;;;;;;5518757;25;19927;-66
2024/04/11 03:30:51;;;;;;;;;;;;;;;;;;5503770;25;20572;-66
2024/04/11 03:33:16;;;;;;;;;;;;;;;;;;5458351;25;19930;-70
2024/04/11 03:35:44;;;;;;;;;;;;;;;;;;5521035;25;19927;-65
2024/04/11 03:38:12;;;;;;;;;;;;;;;;;;5516850;25;19935;-68
2024/04/11 03:40:37;;;;;;;;;;;;;;;;;;5493350;25;19938;-69
2024/04/11 03:43:03;;;;;;;;;;;;;;;;;;5521061;25;19968;-65
2024/04/11 03:45:30;;;;;;;;;;;;;;;;;;5490929;25;19946;-66
2024/04/11 03:47:55;;;;;;;;;;;;;;;;;;5495075;25;19934;-67
2024/04/11 03:50:24;;;;;;;;;;;;;;;;;;5519418;25;20307;-65
2024/04/11 03:52:53;;;;;;;;;;;;;;;;;;5492052;25;20431;-66
2024/04/11 03:55:21;;;;;;;;;;;;;;;;;;5489404;25;19934;-65
2024/04/11 03:57:46;;;;;;;;;;;;;;;;;;5480441;25;19989;-65
2024/04/11 04:00:11;;;;;;;;;;;;;;;;;;5479112;25;19974;-63
2024/04/11 04:02:37;;;;;;;;;;;;;;;;;;5489250;25;19944;-64
2024/04/11 04:05:02;;;;;;;;;;;;;;;;;;5486622;25;19939;-64
2024/04/11 04:07:28;;;;;;;;;;;;;;;;;;5513530;25;20252;-64
2024/04/11 04:09:58;;;;;;;;;;;;;;;;;;5521967;25;19939;-64
2024/04/11 04:12:26;;;;;;;;;;;;;;;;;;5475630;25;20483;-65
2024/04/11 04:14:54;;;;;;;;;;;;;;;;;;5509945;25;19951;-66
2024/04/11 04:17:23;;;;;;;;;;;;;;;;;;5476018;25;20633;-64
2024/04/11 04:19:52;;;;;;;;;;;;;;;;;;5515826;25;19935;-66
2024/04/11 04:22:17;;;;;;;;;;;;;;;;;;5478996;25;19942;-66
2024/04/11 04:24:45;;;;;;;;;;;;;;;;;;5493985;25;19927;-65
2024/04/11 04:27:11;;;;;;;;;;;;;;;;;;5508026;25;19934;-65
2024/04/11 04:29:37;;;;;;;;;;;;;;;;;;5507040;25;19936;-64
2024/04/11 04:32:02;;;;;;;;;;;;;;;;;;5506540;25;20024;-65
2024/04/11 04:34:28;;;;;;;;;;;;;;;;;;5511400;25;19971;-64
2024/04/11 04:36:56;;;;;;;;;;;;;;;;;;5509685;25;19935;-65
2024/04/11 04:39:30;;;;;;;;;;;;;;;;;;5518222;25;19950;-66
2024/04/11 04:41:56;;;;;;;;;;;;;;;;;;5519768;25;19927;-66
2024/04/11 04:44:24;;;;;;;;;;;;;;;;;;5487377;25;19938;-66
2024/04/11 04:46:49;;;;;;;;;;;;;;;;;;5493495;25;19935;-67
2024/04/11 04:49:14;;;;;;;;;;;;;;;;;;5519935;25;19938;-68
2024/04/11 04:51:43;;;;;;;;;;;;;;;;;;5519895;25;20708;-68
2024/04/11 04:54:13;;;;;;;;;;;;;;;;;;5517944;25;21042;-69
2024/04/11 04:56:39;;;;;;;;;;;;;;;;;;5520834;25;19986;-68
2024/04/11 04:59:08;;;;;;;;;;;;;;;;;;5516913;25;20334;-71
2024/04/11 05:01:33;;;;;;;;;;;;;;;;;;5517370;25;19943;-70
2024/04/11 05:04:00;;;;;;;;;;;;;;;;;;5518883;25;20315;-68
2024/04/11 05:06:28;;;;;;;;;;;;;;;;;;5483657;25;19985;-71
2024/04/11 05:08:54;;;;;;;;;;;;;;;;;;5489450;25;19935;-69
2024/04/11 05:11:21;;;;;;;;;;;;;;;;;;5466972;25;20043;-68
2024/04/11 05:13:46;;;;;;;;;;;;;;;;;;5486027;25;20296;-69
2024/04/11 05:16:18;;;;;;;;;;;;;;;;;;5489139;25;19935;-70
2024/04/11 05:18:44;;;;;;;;;;;;;;;;;;5521600;25;19950;-70
2024/04/11 05:21:09;;;;;;;;;;;;;;;;;;5488331;25;20449;-69
2024/04/11 05:23:34;;;;;;;;;;;;;;;;;;5484677;25;20362;-72
2024/04/11 05:26:00;;;;;;;;;;;;;;;;;;5489673;25;19947;-69
2024/04/11 05:28:34;;;;;;;;;;;;;;;;;;5518627;25;19935;-69
2024/04/11 05:31:04;;;;;;;;;;;;;;;;;;5516481;25;19963;-69
2024/04/11 05:33:32;;;;;;;;;;;;;;;;;;5492127;25;19967;-69
2024/04/11 05:35:58;;;;;;;;;;;;;;;;;;5516540;25;19933;-70
2024/04/11 05:38:24;;;;;;;;;;;;;;;;;;5500457;25;20662;-69
2024/04/11 05:40:52;;;;;;;;;;;;;;;;;;5492260;25;19979;-68
2024/04/11 05:43:20;;;;;;;;;;;;;;;;;;5519748;25;19934;-67
2024/04/11 05:45:48;;;;;;;;;;;;;;;;;;5517919;25;19947;-69
2024/04/11 05:48:13;;;;;;;;;;;;;;;;;;5519972;25;19934;-69
2024/04/11 05:50:38;;;;;;;;;;;;;;;;;;5518758;25;19958;-67
2024/04/11 05:53:08;;;;;;;;;;;;;;;;;;5491146;25;19955;-70
2024/04/11 05:55:33;;;;;;;;;;;;;;;;;;5490560;25;19976;-69
2024/04/11 05:58:01;;;;;;;;;;;;;;;;;;5487428;25;19939;-68
2024/04/11 06:00:31;;;;;;;;;;;;;;;;;;5489315;25;19952;-71
2024/04/11 06:03:08;;;;;;;;;;;;;;;;;;5483659;25;19976;-69
2024/04/11 06:05:33;;;;;;;;;;;;;;;;;;5516523;25;19931;-70
2024/04/11 06:08:01;;;;;;;;;;;;;;;;;;5518356;25;19973;-68
2024/04/11 06:10:29;;;;;;;;;;;;;;;;;;5488179;25;19928;-70
2024/04/11 06:12:56;;;;;;;;;;;;;;;;;;5469521;25;20094;-71
2024/04/11 06:15:22;;;;;;;;;;;;;;;;;;5491549;25;19934;-67
2024/04/11 06:17:49;;;;;;;;;;;;;;;;;;5515611;25;19945;-67
2024/04/11 06:20:21;;;;;;;;;;;;;;;;;;5516482;25;19934;-68
2024/04/11 06:22:51;;;;;;;;;;;;;;;;;;5487436;25;19929;-67
2024/04/11 06:25:22;;;;;;;;;;;;;;;;;;5492458;25;19935;-66
2024/04/11 06:27:50;;;;;;;;;;;;;;;;;;5461774;25;20015;-67
2024/04/11 06:30:19;;;;;;;;;;;;;;;;;;5519249;25;19935;-67
2024/04/11 06:32:51;;;;;;;;;;;;;;;;;;5516243;25;19927;-67
2024/04/11 06:35:16;;;;;;;;;;;;;;;;;;5483325;25;19935;-67
2024/04/11 06:37:44;;;;;;;;;;;;;;;;;;5488708;25;19936;-67
2024/04/11 06:40:15;;;;;;;;;;;;;;;;;;5479859;25;20020;-67
2024/04/11 06:42:47;;;;;;;;;;;;;;;;;;5520166;25;19943;-67
2024/04/11 06:45:14;;;;;;;;;;;;;;;;;;5481653;25;20412;-66
2024/04/11 06:47:40;;;;;;;;;;;;;;;;;;5495888;25;19934;-66
2024/04/11 06:50:06;;;;;;;;;;;;;;;;;;5495633;25;19931;-68
2024/04/11 06:52:31;;;;;;;;;;;;;;;;;;5501157;25;19934;-67
2024/04/11 06:54:59;;;;;;;;;;;;;;;;;;5493064;25;19935;-68
2024/04/11 06:57:26;;;;;;;;;;;;;;;;;;5462930;25;19946;-66
2024/04/11 06:59:51;;;;;;;;;;;;;;;;;;5521456;25;19939;-68
2024/04/11 07:02:17;;;;;;;;;;;;;;;;;;5521945;25;19992;-67
2024/04/11 07:04:44;;;;;;;;;;;;;;;;;;5521458;25;19927;-69
2024/04/11 07:07:10;;;;;;;;;;;;;;;;;;5494728;25;20341;-68
2024/04/11 07:09:38;;;;;;;;;;;;;;;;;;5490997;25;19934;-67
2024/04/11 07:12:28;;;;;;;;;;;;;;;;;;5521076;25;19927;-67
2024/04/11 07:14:56;;;;;;;;;;;;;;;;;;5521655;25;19947;-72
2024/04/11 07:17:27;;;;;;;;;;;;;;;;;;5493691;25;20097;-69
2024/04/11 07:19:53;;;;;;;;;;;;;;;;;;5491658;25;20258;-68
2024/04/11 07:22:24;;;;;;;;;;;;;;;;;;5487167;25;19943;-65
2024/04/11 07:24:49;;;;;;;;;;;;;;;;;;5518839;25;19939;-64
2024/04/11 07:27:17;;;;;;;;;;;;;;;;;;5485447;25;20004;-70
2024/04/11 07:29:45;;;;;;;;;;;;;;;;;;5494176;25;19934;-68
2024/04/11 07:32:10;;;;;;;;;;;;;;;;;;5495357;25;19927;-67
2024/04/11 07:34:38;;;;;;;;;;;;;;;;;;5500613;25;20291;-68
2024/04/11 07:37:06;;;;;;;;;;;;;;;;;;5519999;25;20007;-67
2024/04/11 07:39:41;;;;;;;;;;;;;;;;;;5460597;25;20003;-67
2024/04/11 07:42:18;;;;;;;;;;;;;;;;;;5522634;25;19959;-68
2024/04/11 07:44:43;;;;;;;;;;;;;;;;;;5500647;25;19945;-67
2024/04/11 07:47:14;;;;;;;;;;;;;;;;;;5485538;25;20327;-70
2024/04/11 07:49:42;;;;;;;;;;;;;;;;;;5520757;25;19928;-67
2024/04/11 07:52:10;;;;;;;;;;;;;;;;;;5520191;25;20505;-67
2024/04/11 07:54:35;;;;;;;;;;;;;;;;;;5489478;25;20316;-68
2024/04/11 07:57:00;;;;;;;;;;;;;;;;;;5521433;25;20009;-66
2024/04/11 07:59:32;;;;;;;;;;;;;;;;;;5523941;25;19999;-67
2024/04/11 08:02:01;;;;;;;;;;;;;;;;;;5519694;25;19996;-67
2024/04/11 08:07:39;;;;;;;;;;;;;;;;;;5516889;25;21366;-69
2024/04/11 08:10:09;;;;;;;;;;;;;;;;;;5468693;25;20697;-70
2024/04/11 08:12:36;;;;;;;;;;;;;;;;;;5488513;25;19934;-69
2024/04/11 08:15:06;;;;;;;;;;;;;;;;;;5486489;25;20456;-68
2024/04/11 08:17:32;;;;;;;;;;;;;;;;;;5457896;25;20023;-66
2024/04/11 08:19:57;;;;;;;;;;;;;;;;;;5521719;25;19979;-69
2024/04/11 08:22:27;;;;;;;;;;;;;;;;;;5518595;25;21091;-67
2024/04/11 08:24:55;;;;;;;;;;;;;;;;;;5466155;25;19958;-67
2024/04/11 08:27:23;;;;;;;;;;;;;;;;;;5467768;25;19961;-68
2024/04/11 08:29:48;;;;;;;;;;;;;;;;;;5521614;25;20112;-67
2024/04/11 08:32:13;;;;;;;;;;;;;;;;;;5470379;25;19931;-70
2024/04/11 08:34:39;;;;;;;;;;;;;;;;;;5517512;25;19927;-68
2024/04/11 08:37:07;;;;;;;;;;;;;;;;;;5517679;25;20389;-67
2024/04/11 08:39:32;;;;;;;;;;;;;;;;;;5515761;25;19938;-68
2024/04/11 08:41:57;;;;;;;;;;;;;;;;;;5487377;25;19935;-68
2024/04/11 08:44:23;;;;;;;;;;;;;;;;;;5521653;25;19978;-66
2024/04/11 08:46:51;;;;;;;;;;;;;;;;;;5518816;25;20536;-66
2024/04/11 08:49:18;;;;;;;;;;;;;;;;;;5488479;25;20323;-65
2024/04/11 08:51:44;;;;;;;;;;;;;;;;;;5499828;25;19927;-69
2024/04/11 08:54:09;;;;;;;;;;;;;;;;;;5513028;25;20340;-65
2024/04/11 08:56:35;;;;;;;;;;;;;;;;;;5519293;25;19935;-65
2024/04/11 08:59:05;;;;;;;;;;;;;;;;;;5462199;25;20338;-66
2024/04/11 09:01:30;;;;;;;;;;;;;;;;;;5457699;25;20347;-67
2024/04/11 09:03:57;;;;;;;;;;;;;;;;;;5464267;25;20243;-67
2024/04/11 09:06:26;;;;;;;;;;;;;;;;;;5520762;25;19934;-72
2024/04/11 09:08:51;;;;;;;;;;;;;;;;;;5495178;25;19943;-67
2024/04/11 09:11:19;;;;;;;;;;;;;;;;;;5520151;25;19966;-67
2024/04/11 09:13:44;;;;;;;;;;;;;;;;;;5515253;25;19934;-68
2024/04/11 09:16:11;;;;;;;;;;;;;;;;;;5522586;25;19934;-70
2024/04/11 09:18:39;;;;;;;;;;;;;;;;;;5518645;25;19934;-67
2024/04/11 09:21:08;;;;;;;;;;;;;;;;;;5521884;25;19966;-76
2024/04/11 09:23:39;;;;;;;;;;;;;;;;;;5465979;25;19942;-69
2024/04/11 09:26:06;;;;;;;;;;;;;;;;;;5491989;25;19995;-68
2024/04/11 09:28:35;;;;;;;;;;;;;;;;;;5465036;25;19934;-67
2024/04/11 09:31:03;;;;;;;;;;;;;;;;;;5459154;25;19938;-70
2024/04/11 09:33:50;;;;;;;;;;;;;;;;;;5489175;25;20446;-69
2024/04/11 09:36:15;;;;;;;;;;;;;;;;;;5517890;25;19935;-71
2024/04/11 09:38:41;;;;;;;;;;;;;;;;;;5487473;25;20028;-69
2024/04/11 09:41:11;;;;;;;;;;;;;;;;;;5473782;25;19935;-70
2024/04/11 09:43:40;;;;;;;;;;;;;;;;;;5521509;25;19934;-72
2024/04/11 09:46:06;;;;;;;;;;;;;;;;;;5520701;25;20719;-69
2024/04/11 09:48:38;;;;;;;;;;;;;;;;;;5519993;25;20382;-72
2024/04/11 09:51:05;;;;;;;;;;;;;;;;;;5519196;25;19934;-71
2024/04/11 09:53:30;;;;;;;;;;;;;;;;;;5487729;25;20012;-69
2024/04/11 09:56:05;;;;;;;;;;;;;;;;;;5489610;25;20520;-74
2024/04/11 09:58:38;;;;;;;;;;;;;;;;;;5490425;25;19931;-70
2024/04/11 10:01:06;;;;;;;;;;;;;;;;;;5517956;25;19939;-70
2024/04/11 10:03:34;;;;;;;;;;;;;;;;;;5486367;25;19974;-69
2024/04/11 10:06:09;;;;;;;;;;;;;;;;;;;;;
2024/04/11 10:08:37;;;;;;;;;;;;;;;;;;5499582;25;21219;-70
2024/04/11 10:11:03;;;;;;;;;;;;;;;;;;5490048;25;19931;-70
2024/04/11 10:13:29;;;;;;;;;;;;;;;;;;5459531;25;19934;-70
2024/04/11 10:15:56;;;;;;;;;;;;;;;;;;5492097;25;19934;-70
2024/04/11 10:18:27;;;;;;;;;;;;;;;;;;5497552;25;19943;-70
2024/04/11 10:21:02;;;;;;;;;;;;;;;;;;5495332;25;19938;-69
2024/04/11 10:23:29;;;;;;;;;;;;;;;;;;5520242;25;19928;-68
2024/04/11 10:26:06;;;;;;;;;;;;;;;;;;5498776;25;20670;-68
2024/04/11 10:28:51;;;;;;;;;;;;;;;;;;5522564;25;19938;-70
2024/04/11 10:31:22;;;;;;;;;;;;;;;;;;5520243;25;19933;-69
2024/04/11 10:33:53;;;;;;;;;;;;;;;;;;5492697;25;20023;-69
2024/04/11 10:36:25;;;;;;;;;;;;;;;;;;5495224;25;19953;-71
2024/04/11 10:38:52;;;;;;;;;;;;;;;;;;5490366;25;19942;-69
2024/04/11 10:41:20;;;;;;;;;;;;;;;;;;5461752;25;19959;-69
2024/04/11 10:43:46;;;;;;;;;;;;;;;;;;5519019;25;19934;-69
2024/04/11 10:46:12;;;;;;;;;;;;;;;;;;5490317;25;19942;-71
2024/04/11 10:48:40;;;;;;;;;;;;;;;;;;5496995;25;19934;-70
2024/04/11 10:51:10;;;;;;;;;;;;;;;;;;5522279;25;19927;-73
2024/04/11 10:53:36;;;;;;;;;;;;;;;;;;5519473;25;19935;-71
2024/04/11 10:56:20;;;;;;;;;;;;;;;;;;5493217;25;21017;-69
2024/04/11 10:58:47;;;;;;;;;;;;;;;;;;5520350;25;19926;-69
2024/04/11 11:01:12;;;;;;;;;;;;;;;;;;5481488;25;19996;-72
2024/04/11 11:06:08;;;;;;;;;;;;;;;;;;5479401;25;20637;-70
2024/04/11 11:08:34;;;;;;;;;;;;;;;;;;5488171;25;20394;-69
2024/04/11 11:11:05;;;;;;;;;;;;;;;;;;5483324;25;19927;-69
2024/04/11 11:13:35;;;;;;;;;;;;;;;;;;5481176;25;19928;-69
2024/04/11 11:16:05;;;;;;;;;;;;;;;;;;5467688;25;20395;-70
2024/04/11 11:18:33;;;;;;;;;;;;;;;;;;5483476;25;19947;-70
2024/04/11 11:21:00;;;;;;;;;;;;;;;;;;5489516;25;20375;-70
2024/04/11 11:23:26;;;;;;;;;;;;;;;;;;5481803;25;19932;-70
2024/04/11 11:25:57;;;;;;;;;;;;;;;;;;5487289;25;20238;-73
2024/04/11 11:28:24;;;;;;;;;;;;;;;;;;5486341;25;19958;-71
2024/04/11 11:30:56;;;;;;;;;;;;;;;;;;5484051;25;20203;-69
2024/04/11 11:33:23;;;;;;;;;;;;;;;;;;5483131;25;19938;-71
2024/04/11 11:35:51;;;;;;;;;;;;;;;;;;5488745;25;20757;-69
2024/04/11 11:38:19;;;;;;;;;;;;;;;;;;5486518;25;19936;-68
2024/04/11 11:40:46;;;;;;;;;;;;;;;;;;5485914;25;20251;-69
2024/04/11 11:43:16;;;;;;;;;;;;;;;;;;5487880;25;20026;-68
2024/04/11 11:46:17;;;;;;;;;;;;;;;;;;5466124;25;19928;-72
2024/04/11 11:48:35;;;;;;;;;;;;;;;;;;5480407;25;19928;-71
2024/04/11 11:51:05;;;;;;;;;;;;;;;;;;5485633;25;20025;-68
2024/04/11 11:53:34;;;;;;;;;;;;;;;;;;5483499;25;20038;-68
2024/04/11 11:56:05;;;;;;;;;;;;;;;;;;5490577;25;20033;-69
2024/04/11 11:58:30;;;;;;;;;;;;;;;;;;5485739;25;19944;-71
2024/04/11 12:00:59;;;;;;;;;;;;;;;;;;5462990;25;19943;-69
2024/04/11 12:03:24;;;;;;;;;;;;;;;;;;5483085;25;20027;-69
2024/04/11 12:05:50;;;;;;;;;;;;;;;;;;5485910;25;20378;-69
2024/04/11 12:08:16;;;;;;;;;;;;;;;;;;5481679;25;19939;-69
2024/04/11 12:13:34;;;;;;;;;;;;;;;;;;5482362;25;19946;-71
2024/04/11 12:15:59;;;;;;;;;;;;;;;;;;5485408;25;19928;-69
2024/04/11 12:18:25;;;;;;;;;;;;;;;;;;5483940;25;19934;-68
2024/04/11 12:20:54;;;;;;;;;;;;;;;;;;5481240;25;19936;-69
2024/04/11 12:23:22;;;;;;;;;;;;;;;;;;5461250;25;20313;-69
2024/04/11 12:25:49;;;;;;;;;;;;;;;;;;5489246;25;20415;-71
2024/04/11 12:28:21;;;;;;;;;;;;;;;;;;5464862;25;19951;-71
2024/04/11 12:30:50;;;;;;;;;;;;;;;;;;5485804;25;19929;-70
2024/04/11 12:33:19;;;;;;;;;;;;;;;;;;5493221;25;19928;-70
2024/04/11 12:35:55;;;;;;;;;;;;;;;;;;5484819;25;19928;-69
2024/04/11 12:38:30;;;;;;;;;;;;;;;;;;5482838;25;20521;-69
2024/04/11 12:40:58;;;;;;;;;;;;;;;;;;5483793;25;19935;-70
2024/04/11 12:43:35;;;;;;;;;;;;;;;;;;5484415;25;19951;-70
2024/04/11 12:46:00;;;;;;;;;;;;;;;;;;5484098;25;19939;-69
2024/04/11 12:48:26;;;;;;;;;;;;;;;;;;5481730;25;19976;-69
2024/04/11 12:50:54;;;;;;;;;;;;;;;;;;5484652;25;19947;-71
2024/04/11 12:53:24;;;;;;;;;;;;;;;;;;5482664;25;19927;-68
2024/04/11 12:55:52;;;;;;;;;;;;;;;;;;5488531;25;21201;-70
2024/04/11 12:58:19;;;;;;;;;;;;;;;;;;5483061;25;19968;-69
2024/04/11 13:00:57;;;;;;;;;;;;;;;;;;5485554;25;20355;-70
2024/04/11 13:03:24;;;;;;;;;;;;;;;;;;5482798;25;19946;-72
2024/04/11 13:05:52;;;;;;;;;;;;;;;;;;5482399;25;20000;-70
2024/04/11 13:08:19;;;;;;;;;;;;;;;;;;5483161;25;19995;-71
2024/04/11 13:10:55;;;;;;;;;;;;;;;;;;5483450;25;19927;-68
2024/04/11 13:13:23;;;;;;;;;;;;;;;;;;5480270;25;19991;-69
2024/04/11 13:15:54;;;;;;;;;;;;;;;;;;5481776;25;20377;-68
2024/04/11 13:18:28;;;;;;;;;;;;;;;;;;5482010;25;20271;-70
2024/04/11 13:20:56;;;;;;;;;;;;;;;;;;5487613;25;19954;-70
2024/04/11 13:23:21;;;;;;;;;;;;;;;;;;5479789;25;20375;-69
2024/04/11 13:25:47;;;;;;;;;;;;;;;;;;5460887;25;19936;-69
2024/04/11 13:28:15;;;;;;;;;;;;;;;;;;5485167;25;20025;-69
2024/04/11 13:30:46;;;;;;;;;;;;;;;;;;5482132;25;20424;-68
2024/04/11 13:33:14;;;;;;;;;;;;;;;;;;5484450;25;20011;-69
2024/04/11 13:35:48;;;;;;;;;;;;;;;;;;5487876;25;20424;-69
2024/04/11 13:38:14;;;;;;;;;;;;;;;;;;5480574;25;19959;-69
2024/04/11 13:43:07;;;;;;;;;;;;;;;;;;5480225;25;19978;-68
2024/04/11 13:45:40;;;;;;;;;;;;;;;;;;5457996;25;20117;-68
2024/04/11 13:48:06;;;;;;;;;;;;;;;;;;5482421;25;20973;-69
2024/04/11 13:50:34;;;;;;;;;;;;;;;;;;5480671;25;19968;-71
2024/04/11 13:53:04;;;;;;;;;;;;;;;;;;5485729;25;19932;-68
2024/04/11 13:55:30;;;;;;;;;;;;;;;;;;5482537;25;19931;-69
2024/04/11 13:57:59;;;;;;;;;;;;;;;;;;5486890;25;19935;-69
2024/04/11 14:00:24;;;;;;;;;;;;;;;;;;5501820;25;19984;-68
2024/04/11 14:03:16;;;;;;;;;;;;;;;;;;5509227;25;20413;-68
2024/04/11 14:05:59;;;;;;;;;;;;;;;;;;5490715;25;19938;-68
2024/04/11 14:08:25;;;;;;;;;;;;;;;;;;5516584;25;19972;-70
2024/04/11 14:10:53;;;;;;;;;;;;;;;;;;5491077;25;19927;-70
2024/04/11 14:13:18;;;;;;;;;;;;;;;;;;5516377;25;20000;-69
2024/04/11 14:15:52;;;;;;;;;;;;;;;;;;5488291;25;19927;-71
2024/04/11 14:18:28;;;;;;;;;;;;;;;;;;5517221;25;20017;-68
2024/04/11 14:21:17;;;;;;;;;;;;;;;;;;5492425;25;20544;-69
2024/04/11 14:23:52;;;;;;;;;;;;;;;;;;5519293;25;19998;-68
2024/04/11 14:26:24;;;;;;;;;;;;;;;;;;5521075;25;19936;-69
2024/04/11 14:28:54;;;;;;;;;;;;;;;;;;5485907;25;19928;-69
2024/04/11 14:31:30;;;;;;;;;;;;;;;;;;5518490;25;20307;-69
2024/04/11 14:36:26;;;;;;;;;;;;;;;;;;5516787;25;19928;-68
2024/04/11 14:38:55;;;;;;;;;;;;;;;;;;5492596;25;19935;-67
2024/04/11 14:41:22;;;;;;;;;;;;;;;;;;5485618;25;20254;-68
2024/04/11 14:43:55;;;;;;;;;;;;;;;;;;5519079;25;19934;-69
2024/04/11 14:46:33;;;;;;;;;;;;;;;;;;5514821;25;19963;-68
2024/04/11 14:49:04;;;;;;;;;;;;;;;;;;5492522;25;20362;-68
2024/04/11 14:51:40;;;;;;;;;;;;;;;;;;5517089;25;19939;-72
2024/04/11 14:54:15;;;;;;;;;;;;;;;;;;5517797;25;19950;-68
2024/04/11 14:56:43;;;;;;;;;;;;;;;;;;5516627;25;19967;-67
2024/04/11 14:59:13;;;;;;;;;;;;;;;;;;5492145;25;19990;-68
2024/04/11 15:01:52;;;;;;;;;;;;;;;;;;5460050;25;19935;-67
2024/04/11 15:04:20;;;;;;;;;;;;;;;;;;5524607;25;19926;-68
2024/04/11 15:06:47;;;;;;;;;;;;;;;;;;5495958;25;19934;-68
2024/04/11 15:09:29;;;;;;;;;;;;;;;;;;5491442;25;19927;-68
2024/04/11 15:11:54;;;;;;;;;;;;;;;;;;5522595;25;19935;-70
2024/04/11 15:14:19;;;;;;;;;;;;;;;;;;5520429;25;19941;-70
2024/04/11 15:16:47;;;;;;;;;;;;;;;;;;5522258;25;19966;-68
2024/04/11 15:19:15;;;;;;;;;;;;;;;;;;5521244;25;20405;-68
2024/04/11 15:21:44;;;;;;;;;;;;;;;;;;5491490;25;19959;-67
2024/04/11 15:24:18;;;;;;;;;;;;;;;;;;5491419;25;20264;-69
2024/04/11 15:26:48;;;;;;;;;;;;;;;;;;5468209;25;20535;-67
2024/04/11 15:29:21;;;;;;;;;;;;;;;;;;5488282;25;19935;-68
2024/04/11 15:32:22;;;;;;;;;;;;;;;;;;5495732;25;19927;-69
2024/04/11 15:34:52;;;;;;;;;;;;;;;;;;5484892;25;19935;-69
2024/04/11 15:37:27;;;;;;;;;;;;;;;;;;5489313;25;19950;-69
2024/04/11 15:40:00;;;;;;;;;;;;;;;;;;5513555;25;20646;-69
2024/04/11 15:42:25;;;;;;;;;;;;;;;;;;5492665;25;19941;-70
2024/04/11 15:44:53;;;;;;;;;;;;;;;;;;5493132;25;20363;-69
2024/04/11 15:47:21;;;;;;;;;;;;;;;;;;5521168;25;19927;-68
2024/04/11 15:49:57;;;;;;;;;;;;;;;;;;5489414;25;19927;-72
2024/04/11 15:52:28;;;;;;;;;;;;;;;;;;5522291;25;20312;-67
2024/04/11 15:54:56;;;;;;;;;;;;;;;;;;5495819;25;19934;-67
2024/04/11 15:57:25;;;;;;;;;;;;;;;;;;5492986;25;19946;-69
2024/04/11 15:59:53;;;;;;;;;;;;;;;;;;5521023;25;19991;-68
2024/04/11 16:02:19;;;;;;;;;;;;;;;;;;5519274;25;19982;-66
2024/04/11 16:04:44;;;;;;;;;;;;;;;;;;5502548;25;20605;-69
2024/04/11 16:07:12;;;;;;;;;;;;;;;;;;5491625;25;19928;-68
2024/04/11 16:09:46;;;;;;;;;;;;;;;;;;5493819;25;19946;-68
2024/04/11 16:12:11;;;;;;;;;;;;;;;;;;5491114;25;20303;-68
2024/04/11 16:14:43;;;;;;;;;;;;;;;;;;5518272;25;19972;-66
2024/04/11 16:17:13;;;;;;;;;;;;;;;;;;5518580;25;19935;-65
2024/04/11 16:19:44;;;;;;;;;;;;;;;;;;5462088;25;20666;-67
2024/04/11 16:22:13;;;;;;;;;;;;;;;;;;5494696;25;19940;-67
2024/04/11 16:24:48;;;;;;;;;;;;;;;;;;5522017;25;20730;-67
2024/04/11 16:27:13;;;;;;;;;;;;;;;;;;5519614;25;19935;-67
2024/04/11 16:29:39;;;;;;;;;;;;;;;;;;5521100;25;20035;-68
2024/04/11 16:32:07;;;;;;;;;;;;;;;;;;5521359;25;19928;-68
2024/04/11 16:34:35;;;;;;;;;;;;;;;;;;5521395;25;19955;-69
2024/04/11 16:37:05;;;;;;;;;;;;;;;;;;5491013;25;20414;-68
2024/04/11 16:42:14;;;;;;;;;;;;;;;;;;5520380;25;19928;-67
2024/04/11 16:44:48;;;;;;;;;;;;;;;;;;5487597;25;20264;-68
2024/04/11 16:47:16;;;;;;;;;;;;;;;;;;5520722;25;19928;-68
2024/04/11 16:49:44;;;;;;;;;;;;;;;;;;5491791;25;20054;-68
2024/04/11 16:52:16;;;;;;;;;;;;;;;;;;5487030;25;20035;-68
2024/04/11 16:54:47;;;;;;;;;;;;;;;;;;5520782;25;19993;-67
2024/04/11 16:57:14;;;;;;;;;;;;;;;;;;5501126;25;19960;-68
2024/04/11 16:59:41;;;;;;;;;;;;;;;;;;5518384;25;19938;-68
2024/04/11 17:02:09;;;;;;;;;;;;;;;;;;5472537;25;19939;-68
2024/04/11 17:04:35;;;;;;;;;;;;;;;;;;5494108;25;19941;-68
2024/04/11 17:09:59;;;;;;;;;;;;;;;;;;5443142;25;20139;-67
2024/04/11 17:12:30;;;;;;;;;;;;;;;;;;5519592;25;20262;-67